createdAt,value
2022-11-18T00:01:51.200Z,16.80
2022-11-18T00:04:48.311Z,19.20
2022-11-18T00:07:45.275Z,16.40
2022-11-18T00:10:42.256Z,18.60
2022-11-18T00:13:57.909Z,16.00
2022-11-18T00:17:05.277Z,15.80
2022-11-18T00:20:02.250Z,17.20
2022-11-18T00:23:00.066Z,14.00
2022-11-18T00:26:02.229Z,16.00
2022-11-18T00:28:59.157Z,15.40
2022-11-18T00:31:56.533Z,17.60
2022-11-18T00:34:53.341Z,18.00
2022-11-18T00:37:50.404Z,18.40
2022-11-18T00:40:47.018Z,13.20
2022-11-18T00:43:44.650Z,12.00
2022-11-18T00:46:42.491Z,14.00
2022-11-18T00:49:39.078Z,11.00
2022-11-18T00:52:36.630Z,16.20
2022-11-18T00:55:34.187Z,15.60
2022-11-18T00:58:31.397Z,16.20
2022-11-18T01:01:28.453Z,16.60
2022-11-18T01:04:25.361Z,15.20
2022-11-18T01:07:22.071Z,14.60
2022-11-18T01:10:19.628Z,14.00
2022-11-18T01:13:21.086Z,15.20
2022-11-18T01:16:19.959Z,15.60
2022-11-18T01:19:18.658Z,17.20
2022-11-18T01:22:16.295Z,8.00
2022-11-18T01:25:13.332Z,11.40
2022-11-18T01:28:10.555Z,16.20
2022-11-18T01:31:08.947Z,16.60
2022-11-18T01:34:06.329Z,14.20
2022-11-18T01:37:03.504Z,11.40
2022-11-18T01:40:00.583Z,17.60
2022-11-18T01:42:57.332Z,17.00
2022-11-18T01:45:54.305Z,16.60
2022-11-18T01:48:54.740Z,14.60
2022-11-18T01:51:54.770Z,14.60
2022-11-18T01:54:55.535Z,14.40
2022-11-18T01:57:53.020Z,14.80
2022-11-18T02:00:50.168Z,12.80
2022-11-18T02:03:47.310Z,14.00
2022-11-18T02:06:44.559Z,10.40
2022-11-18T02:09:41.400Z,12.60
2022-11-18T02:12:38.163Z,15.00
2022-11-18T02:15:35.201Z,17.40
2022-11-18T02:18:51.371Z,14.20
2022-11-18T02:22:25.505Z,15.00
2022-11-18T02:25:22.595Z,15.80
2022-11-18T02:28:29.959Z,14.00
2022-11-18T02:31:27.327Z,15.00
2022-11-18T02:34:48.985Z,16.40
2022-11-18T02:37:54.795Z,14.20
2022-11-18T02:40:55.445Z,14.80
2022-11-18T02:43:57.058Z,15.40
2022-11-18T02:46:56.766Z,16.20
2022-11-18T02:49:56.866Z,16.60
2022-11-18T02:52:57.075Z,15.80
2022-11-18T02:55:54.048Z,15.20
2022-11-18T02:58:51.599Z,13.40
2022-11-18T03:01:48.592Z,14.00
2022-11-18T03:04:47.300Z,16.20
2022-11-18T03:07:44.615Z,19.40
2022-11-18T03:10:45.713Z,16.20
2022-11-18T03:14:02.820Z,16.80
2022-11-18T03:17:24.861Z,12.80
2022-11-18T03:20:47.569Z,0.00
2022-11-18T03:23:49.965Z,15.20
2022-11-18T03:26:52.703Z,17.20
2022-11-18T03:29:53.571Z,14.00
2022-11-18T03:33:02.954Z,15.00
2022-11-18T03:36:00.527Z,15.40
2022-11-18T03:38:58.721Z,10.80
2022-11-18T03:41:57.876Z,14.40
2022-11-18T03:44:59.327Z,15.80
2022-11-18T03:48:00.246Z,14.40
2022-11-18T03:51:02.703Z,15.00
2022-11-18T03:54:02.818Z,14.80
2022-11-18T03:57:09.531Z,16.80
2022-11-18T04:00:08.136Z,14.20
2022-11-18T04:03:05.367Z,15.60
2022-11-18T04:06:28.477Z,14.40
2022-11-18T04:09:28.910Z,15.00
2022-11-18T04:12:28.123Z,15.00
2022-11-18T04:15:25.569Z,15.00
2022-11-18T04:18:22.563Z,13.80
2022-11-18T04:21:19.403Z,11.40
2022-11-18T04:24:16.330Z,14.00
2022-11-18T04:27:13.614Z,14.00
2022-11-18T04:30:11.177Z,14.20
2022-11-18T04:33:08.593Z,17.00
2022-11-18T04:36:06.040Z,13.80
2022-11-18T04:39:03.725Z,14.00
2022-11-18T04:42:00.728Z,12.80
2022-11-18T04:44:57.904Z,14.20
2022-11-18T04:48:00.272Z,13.20
2022-11-18T04:51:06.719Z,12.20
2022-11-18T04:54:03.898Z,16.60
2022-11-18T04:57:01.577Z,12.20
2022-11-18T04:59:58.520Z,12.20
2022-11-18T05:02:55.386Z,15.00
2022-11-18T05:05:52.469Z,11.00
2022-11-18T05:08:49.430Z,11.80
2022-11-18T05:12:05.063Z,14.20
2022-11-18T05:15:02.203Z,14.40
2022-11-18T05:18:00.393Z,5.80
2022-11-18T05:20:57.428Z,8.40
2022-11-18T05:23:54.610Z,8.40
2022-11-18T05:26:52.254Z,10.80
2022-11-18T05:29:49.121Z,11.20
2022-11-18T05:32:46.506Z,13.40
2022-11-18T05:35:43.604Z,11.00
2022-11-18T05:38:40.622Z,12.20
2022-11-18T05:41:56.113Z,11.00
2022-11-18T05:44:58.155Z,11.00
2022-11-18T05:48:03.083Z,10.40
2022-11-18T05:51:00.332Z,13.60
2022-11-18T05:54:00.316Z,11.00
2022-11-18T05:56:57.687Z,7.00
2022-11-18T05:59:54.628Z,10.00
2022-11-18T06:02:51.259Z,10.60
2022-11-18T06:05:49.166Z,10.20
2022-11-18T06:08:51.130Z,7.00
2022-11-18T06:11:50.749Z,7.00
2022-11-18T06:14:52.819Z,10.00
2022-11-18T06:17:55.895Z,10.00
2022-11-18T06:20:54.970Z,8.00
2022-11-18T06:23:52.324Z,10.80
2022-11-18T06:26:49.325Z,11.00
2022-11-18T06:29:46.284Z,10.40
2022-11-18T06:32:43.786Z,9.20
2022-11-18T06:35:42.796Z,13.00
2022-11-18T06:38:39.995Z,12.00
2022-11-18T06:41:37.847Z,11.00
2022-11-18T06:44:34.850Z,11.40
2022-11-18T06:47:31.597Z,11.00
2022-11-18T06:50:28.795Z,12.20
2022-11-18T06:53:25.634Z,12.20
2022-11-18T06:56:23.055Z,10.20
2022-11-18T06:59:24.061Z,10.60
2022-11-18T07:02:21.747Z,13.20
2022-11-18T07:05:18.957Z,10.80
2022-11-18T07:08:16.240Z,10.40
2022-11-18T07:11:15.200Z,13.80
2022-11-18T07:14:13.049Z,12.00
2022-11-18T07:17:10.586Z,10.80
2022-11-18T07:20:08.154Z,14.00
2022-11-18T07:23:05.394Z,13.00
2022-11-18T07:26:02.915Z,11.00
2022-11-18T07:29:00.282Z,10.00
2022-11-18T07:31:57.648Z,9.60
2022-11-18T07:34:54.870Z,11.00
2022-11-18T07:37:51.633Z,14.00
2022-11-18T07:40:48.484Z,10.00
2022-11-18T07:43:46.119Z,12.00
2022-11-18T07:46:43.878Z,12.40
2022-11-18T07:49:40.725Z,10.40
2022-11-18T07:52:37.690Z,13.00
2022-11-18T07:55:34.445Z,12.20
2022-11-18T07:58:31.400Z,12.60
2022-11-18T08:01:29.840Z,14.00
2022-11-18T08:04:26.573Z,10.00
2022-11-18T08:07:23.382Z,15.80
2022-11-18T08:10:20.978Z,13.80
2022-11-18T08:13:18.634Z,10.00
2022-11-18T08:16:17.978Z,11.00
2022-11-18T08:19:16.229Z,11.00
2022-11-18T08:22:13.588Z,10.60
2022-11-18T08:25:10.511Z,12.00
2022-11-18T08:28:08.270Z,11.00
2022-11-18T08:31:18.798Z,14.60
2022-11-18T08:34:15.449Z,11.80
2022-11-18T08:37:12.862Z,12.80
2022-11-18T08:40:09.843Z,12.80
2022-11-18T08:43:10.841Z,11.80
2022-11-18T08:46:07.677Z,15.20
2022-11-18T08:49:04.622Z,8.00
2022-11-18T08:52:01.478Z,12.60
2022-11-18T08:54:58.764Z,16.40
2022-11-18T08:57:55.382Z,10.00
2022-11-18T09:00:53.030Z,13.00
2022-11-18T09:03:50.914Z,10.20
2022-11-18T09:06:47.885Z,13.00
2022-11-18T09:09:44.860Z,12.75
2022-11-18T09:12:41.804Z,11.40
2022-11-18T09:15:39.062Z,13.00
2022-11-18T09:18:36.825Z,15.75
2022-11-18T09:21:36.842Z,16.00
2022-11-18T09:24:37.396Z,13.50
2022-11-18T09:27:34.769Z,15.50
2022-11-18T09:30:31.395Z,12.50
2022-11-18T09:33:28.762Z,14.25
2022-11-18T09:36:26.254Z,14.25
2022-11-18T09:39:26.664Z,12.50
2022-11-18T09:42:29.575Z,17.75
2022-11-18T09:45:28.778Z,17.00
2022-11-18T09:48:45.353Z,18.50
2022-11-18T09:51:47.319Z,16.00
2022-11-18T09:54:44.527Z,22.75
2022-11-18T09:57:47.713Z,13.75
2022-11-18T10:00:46.296Z,18.50
2022-11-18T10:03:43.836Z,21.25
2022-11-18T10:06:40.597Z,18.75
2022-11-18T10:09:40.110Z,17.00
2022-11-18T10:12:59.402Z,20.50
2022-11-18T10:15:59.325Z,15.50
2022-11-18T10:19:03.877Z,14.25
2022-11-18T10:22:38.415Z,13.00
2022-11-18T10:25:35.775Z,9.75
2022-11-18T10:28:32.682Z,16.00
2022-11-18T10:31:30.183Z,17.25
2022-11-18T10:34:27.986Z,13.75
2022-11-18T10:37:45.276Z,24.25
2022-11-18T10:40:57.940Z,19.00
2022-11-18T10:43:56.112Z,20.75
2022-11-18T10:46:53.502Z,19.50
2022-11-18T10:49:57.994Z,18.25
2022-11-18T10:52:54.792Z,21.25
2022-11-18T10:56:11.650Z,18.00
2022-11-18T10:59:31.641Z,21.25
2022-11-18T11:02:54.605Z,18.00
2022-11-18T11:06:21.223Z,17.25
2022-11-18T11:09:31.266Z,15.75
2022-11-18T11:12:40.414Z,22.00
2022-11-18T11:15:45.300Z,15.00
2022-11-18T11:18:42.787Z,16.00
2022-11-18T11:21:39.465Z,15.75
2022-11-18T11:24:36.936Z,16.00
2022-11-18T11:31:23.936Z,18.25
2022-11-18T11:34:36.823Z,21.25
2022-11-18T11:37:55.080Z,16.00
2022-11-18T11:41:23.122Z,17.25
2022-11-18T11:44:28.584Z,18.00
2022-11-18T11:47:50.064Z,15.25
2022-11-18T11:51:04.307Z,20.75
2022-11-18T11:54:30.001Z,21.00
2022-11-18T11:58:02.496Z,20.50
2022-11-18T12:01:27.259Z,18.50
2022-11-18T12:04:36.991Z,18.00
2022-11-18T12:07:39.377Z,14.75
2022-11-18T12:11:03.991Z,22.00
2022-11-18T12:14:03.995Z,19.00
2022-11-18T12:17:11.972Z,15.75
2022-11-18T12:20:40.064Z,16.50
2022-11-18T12:23:38.005Z,16.00
2022-11-18T12:26:35.206Z,15.00
2022-11-18T12:29:53.326Z,13.00
2022-11-18T12:32:57.287Z,12.00
2022-11-18T12:35:54.935Z,21.00
2022-11-18T12:38:52.585Z,21.25
2022-11-18T12:42:20.821Z,18.00
2022-11-18T12:45:46.016Z,16.50
2022-11-18T12:48:43.364Z,15.00
2022-11-18T12:51:41.503Z,15.50
2022-11-18T12:54:45.390Z,15.00
2022-11-18T12:57:42.782Z,18.00
2022-11-18T13:00:55.096Z,15.75
2022-11-18T13:03:52.923Z,16.00
2022-11-18T13:06:51.150Z,10.00
2022-11-18T13:09:48.899Z,15.75
2022-11-18T13:12:45.861Z,19.00
2022-11-18T13:16:01.467Z,13.00
2022-11-18T13:18:59.191Z,12.50
2022-11-18T13:22:17.427Z,12.25
2022-11-18T13:25:24.947Z,12.25
2022-11-18T13:28:25.754Z,11.50
2022-11-18T13:31:31.822Z,13.00
2022-11-18T13:34:29.684Z,13.00
2022-11-18T13:37:28.747Z,16.00
2022-11-18T13:40:31.493Z,6.50
2022-11-18T13:43:29.033Z,15.00
2022-11-18T13:46:26.067Z,13.00
2022-11-18T13:49:27.810Z,14.50
2022-11-18T13:52:30.648Z,17.00
2022-11-18T13:55:29.325Z,8.00
2022-11-18T13:59:02.740Z,16.00
2022-11-18T14:01:59.309Z,15.00
2022-11-18T14:04:58.319Z,18.75
2022-11-18T14:08:06.439Z,14.00
2022-11-18T14:11:04.316Z,17.00
2022-11-18T14:14:01.589Z,12.25
2022-11-18T14:17:17.402Z,15.00
2022-11-18T14:20:16.585Z,15.50
2022-11-18T14:23:14.282Z,18.25
2022-11-18T14:26:11.876Z,15.25
2022-11-18T14:29:23.099Z,14.50
2022-11-18T14:32:21.657Z,14.00
2022-11-18T14:35:20.149Z,15.00
2022-11-18T14:38:38.290Z,12.00
2022-11-18T14:41:50.000Z,10.00
2022-11-18T14:44:46.841Z,15.00
2022-11-18T14:47:43.898Z,16.00
2022-11-18T14:50:41.115Z,19.00
2022-11-18T14:53:37.568Z,12.00
2022-11-18T14:56:35.010Z,15.00
2022-11-18T14:59:31.972Z,16.00
2022-11-18T15:02:28.967Z,15.50
2022-11-18T15:05:26.105Z,13.00
2022-11-18T15:08:23.212Z,11.50
2022-11-18T15:11:21.165Z,12.50
2022-11-18T15:14:19.357Z,12.75
2022-11-18T15:17:16.713Z,12.75
2022-11-18T15:20:15.180Z,11.00
2022-11-18T15:23:11.809Z,12.50
2022-11-18T15:26:22.605Z,12.50
2022-11-18T15:29:21.544Z,13.50
2022-11-18T15:32:18.890Z,12.50
2022-11-18T15:35:15.884Z,9.75
2022-11-18T15:38:13.106Z,12.75
2022-11-18T15:41:17.269Z,11.75
2022-11-18T15:44:15.047Z,10.00
2022-11-18T15:47:12.014Z,11.50
2022-11-18T15:50:09.141Z,15.00
2022-11-18T15:53:05.717Z,10.50
2022-11-18T15:56:23.998Z,15.25
2022-11-18T15:59:21.326Z,13.00
2022-11-18T16:02:19.052Z,13.50
2022-11-18T16:05:16.090Z,15.75
2022-11-18T16:08:13.093Z,15.75
2022-11-18T16:11:32.760Z,15.00
2022-11-18T16:14:30.169Z,17.00
2022-11-18T16:17:27.038Z,17.00
2022-11-18T16:20:27.338Z,17.00
2022-11-18T16:23:25.408Z,15.00
2022-11-18T16:26:23.196Z,14.25
2022-11-18T16:29:20.981Z,15.00
2022-11-18T16:32:19.175Z,18.00
2022-11-18T16:35:16.237Z,18.00
2022-11-18T16:38:14.486Z,18.00
2022-11-18T16:41:47.278Z,16.00
2022-11-18T16:44:44.985Z,16.50
2022-11-18T16:47:42.226Z,17.75
2022-11-18T16:50:39.310Z,17.00
2022-11-18T16:53:37.072Z,20.00
2022-11-18T16:56:35.076Z,21.00
2022-11-18T16:59:31.918Z,19.75
2022-11-18T17:02:31.589Z,20.25
2022-11-18T17:05:29.052Z,20.00
2022-11-18T17:08:26.143Z,18.25
2022-11-18T17:11:23.060Z,19.75
2022-11-18T17:14:19.973Z,17.00
2022-11-18T17:17:17.134Z,21.00
2022-11-18T17:20:14.283Z,18.00
2022-11-18T17:23:11.179Z,18.00
2022-11-18T17:26:08.622Z,18.00
2022-11-18T17:29:06.001Z,16.67
2022-11-18T17:32:03.152Z,20.33
2022-11-18T17:35:00.246Z,22.00
2022-11-18T17:37:56.990Z,24.33
2022-11-18T17:40:57.691Z,24.25
2022-11-18T17:43:55.036Z,24.00
2022-11-18T17:46:52.245Z,22.00
2022-11-18T17:49:49.255Z,25.50
2022-11-18T17:52:45.876Z,24.00
2022-11-18T17:55:42.915Z,42.25
2022-11-18T17:58:40.718Z,30.00
2022-11-18T18:01:38.024Z,33.00
2022-11-18T18:04:35.281Z,28.00
2022-11-18T18:07:32.114Z,30.00
2022-11-18T18:10:29.149Z,27.00
2022-11-18T18:13:44.874Z,24.00
2022-11-18T18:16:49.467Z,25.67
2022-11-18T18:19:47.016Z,33.50
2022-11-18T18:22:44.049Z,18.67
2022-11-18T18:25:40.981Z,28.50
2022-11-18T18:28:37.983Z,21.00
2022-11-18T18:31:35.583Z,25.67
2022-11-18T18:34:33.130Z,22.00
2022-11-18T18:37:29.890Z,33.00
2022-11-18T18:40:27.299Z,21.00
2022-11-18T18:43:24.025Z,21.33
2022-11-18T18:46:34.633Z,22.00
2022-11-18T18:49:31.916Z,21.33
2022-11-18T18:52:31.520Z,27.33
2022-11-18T18:55:29.191Z,25.00
2022-11-18T18:58:27.028Z,27.00
2022-11-18T19:01:24.349Z,21.00
2022-11-18T19:04:22.284Z,25.00
2022-11-18T19:07:20.072Z,33.00
2022-11-18T19:10:17.427Z,22.67
2022-11-18T19:13:14.816Z,24.33
2022-11-18T19:16:12.349Z,28.00
2022-11-18T19:19:09.769Z,27.00
2022-11-18T19:22:07.408Z,26.33
2022-11-18T19:25:05.165Z,22.00
2022-11-18T19:28:02.164Z,22.67
2022-11-18T19:30:59.898Z,28.67
2022-11-18T19:33:56.948Z,21.00
2022-11-18T19:36:54.361Z,21.75
2022-11-18T19:39:51.072Z,21.00
2022-11-18T19:42:48.350Z,24.00
2022-11-18T19:45:52.328Z,24.67
2022-11-18T19:48:51.149Z,21.00
2022-11-18T19:51:48.351Z,21.00
2022-11-18T19:54:45.155Z,20.67
2022-11-18T19:57:42.436Z,19.67
2022-11-18T20:00:40.026Z,25.00
2022-11-18T20:03:37.192Z,25.00
2022-11-18T20:06:34.731Z,21.00
2022-11-18T20:09:32.454Z,23.33
2022-11-18T20:12:30.448Z,24.67
2022-11-18T20:15:28.244Z,24.67
2022-11-18T20:18:25.407Z,23.33
2022-11-18T20:21:23.632Z,26.33
2022-11-18T20:24:21.244Z,25.00
2022-11-18T20:27:19.024Z,23.33
2022-11-18T20:30:17.648Z,17.33
2022-11-18T20:33:15.332Z,19.00
2022-11-18T20:36:15.164Z,21.00
2022-11-18T20:39:14.778Z,19.67
2022-11-18T20:42:30.766Z,22.00
2022-11-18T20:45:28.027Z,25.00
2022-11-18T20:48:25.105Z,25.00
2022-11-18T20:51:24.071Z,18.67
2022-11-18T20:54:21.736Z,15.00
2022-11-18T20:57:19.649Z,13.67
2022-11-18T21:00:17.744Z,22.00
2022-11-18T21:03:15.470Z,18.00
2022-11-18T21:06:14.443Z,19.00
2022-11-18T21:09:12.148Z,21.33
2022-11-18T21:12:09.607Z,19.00
2022-11-18T21:15:08.186Z,15.00
2022-11-18T21:18:05.159Z,16.50
2022-11-18T21:21:20.849Z,18.67
2022-11-18T21:24:18.230Z,18.33
2022-11-18T21:27:15.641Z,15.67
2022-11-18T21:30:13.511Z,15.25
2022-11-18T21:33:12.781Z,24.00
2022-11-18T21:36:10.730Z,18.33
2022-11-18T21:39:08.420Z,17.33
2022-11-18T21:42:05.369Z,12.00
2022-11-18T21:45:02.033Z,18.00
2022-11-18T21:47:59.299Z,15.00
2022-11-18T21:50:59.174Z,15.00
2022-11-18T21:53:56.363Z,15.00
2022-11-18T21:56:53.797Z,22.00
2022-11-18T21:59:51.444Z,24.00
2022-11-18T22:02:48.081Z,13.67
2022-11-18T22:05:45.312Z,15.00
2022-11-18T22:08:42.345Z,17.33
2022-11-18T22:11:38.927Z,18.00
2022-11-18T22:14:36.262Z,11.33
2022-11-18T22:17:33.202Z,15.67
2022-11-18T22:20:29.928Z,21.67
2022-11-18T22:23:31.203Z,16.00
2022-11-18T22:26:28.581Z,16.67
2022-11-18T22:29:26.415Z,18.00
2022-11-18T22:32:23.356Z,16.00
2022-11-18T22:35:20.386Z,16.00
2022-11-18T22:38:17.136Z,17.50
2022-11-18T22:41:34.720Z,16.00
2022-11-18T22:44:32.143Z,18.50
2022-11-18T22:47:29.247Z,16.00
2022-11-18T22:50:26.469Z,15.00
2022-11-18T22:53:23.380Z,15.00
2022-11-18T22:56:20.296Z,13.00
2022-11-18T22:59:17.769Z,16.00
2022-11-18T23:02:15.876Z,17.00
2022-11-18T23:05:13.443Z,14.50
2022-11-18T23:08:11.705Z,15.00
2022-11-18T23:11:10.829Z,14.33
2022-11-18T23:14:10.330Z,11.50
2022-11-18T23:17:07.147Z,12.50
2022-11-18T23:20:04.463Z,15.50
2022-11-18T23:23:01.129Z,14.00
2022-11-18T23:26:11.595Z,12.00
2022-11-18T23:29:09.969Z,13.00
2022-11-18T23:32:07.330Z,10.50
2022-11-18T23:35:05.645Z,12.25
2022-11-18T23:38:03.319Z,15.00
2022-11-18T23:41:01.508Z,7.50
2022-11-18T23:43:57.901Z,10.00
2022-11-18T23:46:54.844Z,16.00
2022-11-18T23:49:52.605Z,10.50
2022-11-18T23:52:50.084Z,10.00
2022-11-18T23:55:47.096Z,10.00
2022-11-18T23:58:49.018Z,10.50
